sensor_id;sensor_type;location;lat;lon;timestamp;temperature;humidity
66140;DHT22;52945;51.908;8.364;2023-08-30T00:00:20;18.00;68.60
66140;DHT22;52945;51.908;8.364;2023-08-30T00:03:23;18.00;68.40
66140;DHT22;52945;51.908;8.364;2023-08-30T00:06:23;18.00;68.50
66140;DHT22;52945;51.908;8.364;2023-08-30T00:09:24;18.00;68.50
66140;DHT22;52945;51.908;8.364;2023-08-30T00:12:25;18.00;68.60
66140;DHT22;52945;51.908;8.364;2023-08-30T00:15:26;17.90;68.60
66140;DHT22;52945;51.908;8.364;2023-08-30T00:18:27;17.90;68.70
66140;DHT22;52945;51.908;8.364;2023-08-30T00:21:27;17.90;68.60
66140;DHT22;52945;51.908;8.364;2023-08-30T00:24:28;17.90;68.80
66140;DHT22;52945;51.908;8.364;2023-08-30T00:27:29;17.90;68.70
66140;DHT22;52945;51.908;8.364;2023-08-30T00:30:29;17.80;68.90
66140;DHT22;52945;51.908;8.364;2023-08-30T00:33:30;17.80;68.80
66140;DHT22;52945;51.908;8.364;2023-08-30T00:36:30;17.80;68.60
66140;DHT22;52945;51.908;8.364;2023-08-30T00:39:31;17.70;68.70
66140;DHT22;52945;51.908;8.364;2023-08-30T00:42:31;17.70;68.90
66140;DHT22;52945;51.908;8.364;2023-08-30T00:45:33;17.70;68.90
66140;DHT22;52945;51.908;8.364;2023-08-30T00:48:34;17.70;68.90
66140;DHT22;52945;51.908;8.364;2023-08-30T00:51:35;17.70;69.10
66140;DHT22;52945;51.908;8.364;2023-08-30T00:54:35;17.70;68.90
66140;DHT22;52945;51.908;8.364;2023-08-30T00:57:36;17.60;69.00
66140;DHT22;52945;51.908;8.364;2023-08-30T01:00:37;17.60;69.10
66140;DHT22;52945;51.908;8.364;2023-08-30T01:03:39;17.60;68.80
66140;DHT22;52945;51.908;8.364;2023-08-30T01:06:39;17.60;68.80
66140;DHT22;52945;51.908;8.364;2023-08-30T01:09:40;17.60;68.90
66140;DHT22;52945;51.908;8.364;2023-08-30T01:12:45;17.60;68.90
66140;DHT22;52945;51.908;8.364;2023-08-30T01:15:48;17.50;69.00
66140;DHT22;52945;51.908;8.364;2023-08-30T01:18:49;17.60;69.00
66140;DHT22;52945;51.908;8.364;2023-08-30T01:22:15;17.60;68.70
66140;DHT22;52945;51.908;8.364;2023-08-30T01:28:29;17.60;68.90
66140;DHT22;52945;51.908;8.364;2023-08-30T01:31:32;17.50;69.30
66140;DHT22;52945;51.908;8.364;2023-08-30T01:34:34;17.50;69.30
66140;DHT22;52945;51.908;8.364;2023-08-30T01:37:36;17.50;69.40
66140;DHT22;52945;51.908;8.364;2023-08-30T01:40:39;17.50;69.60
66140;DHT22;52945;51.908;8.364;2023-08-30T01:43:41;17.50;69.70
66140;DHT22;52945;51.908;8.364;2023-08-30T01:46:44;17.50;69.80
66140;DHT22;52945;51.908;8.364;2023-08-30T01:49:46;17.50;69.80
66140;DHT22;52945;51.908;8.364;2023-08-30T01:52:47;17.50;69.60
66140;DHT22;52945;51.908;8.364;2023-08-30T01:55:48;17.60;69.60
66140;DHT22;52945;51.908;8.364;2023-08-30T01:58:49;17.60;69.60
66140;DHT22;52945;51.908;8.364;2023-08-30T02:01:51;17.50;69.70
66140;DHT22;52945;51.908;8.364;2023-08-30T02:04:51;17.50;69.60
66140;DHT22;52945;51.908;8.364;2023-08-30T02:08:05;17.50;69.50
66140;DHT22;52945;51.908;8.364;2023-08-30T02:11:22;17.50;69.40
66140;DHT22;52945;51.908;8.364;2023-08-30T02:14:25;17.60;69.60
66140;DHT22;52945;51.908;8.364;2023-08-30T02:17:27;17.60;69.70
66140;DHT22;52945;51.908;8.364;2023-08-30T02:20:29;17.50;69.90
66140;DHT22;52945;51.908;8.364;2023-08-30T02:23:30;17.50;69.90
66140;DHT22;52945;51.908;8.364;2023-08-30T02:26:30;17.40;69.80
66140;DHT22;52945;51.908;8.364;2023-08-30T02:29:31;17.50;69.90
66140;DHT22;52945;51.908;8.364;2023-08-30T02:32:31;17.40;69.90
66140;DHT22;52945;51.908;8.364;2023-08-30T02:35:32;17.40;69.80
66140;DHT22;52945;51.908;8.364;2023-08-30T02:38:32;17.50;69.70
66140;DHT22;52945;51.908;8.364;2023-08-30T02:41:33;17.50;69.80
66140;DHT22;52945;51.908;8.364;2023-08-30T02:44:34;17.50;69.80
66140;DHT22;52945;51.908;8.364;2023-08-30T02:47:35;17.40;69.50
66140;DHT22;52945;51.908;8.364;2023-08-30T02:50:35;17.40;69.50
66140;DHT22;52945;51.908;8.364;2023-08-30T02:53:36;17.40;69.50
66140;DHT22;52945;51.908;8.364;2023-08-30T02:56:36;17.40;69.70
66140;DHT22;52945;51.908;8.364;2023-08-30T02:59:37;17.40;69.80
66140;DHT22;52945;51.908;8.364;2023-08-30T03:02:38;17.40;69.80
66140;DHT22;52945;51.908;8.364;2023-08-30T03:05:38;17.30;69.90
66140;DHT22;52945;51.908;8.364;2023-08-30T03:08:39;17.30;69.80
66140;DHT22;52945;51.908;8.364;2023-08-30T03:11:40;17.30;69.70
66140;DHT22;52945;51.908;8.364;2023-08-30T03:14:40;17.30;69.70
66140;DHT22;52945;51.908;8.364;2023-08-30T03:17:41;17.30;69.70
66140;DHT22;52945;51.908;8.364;2023-08-30T03:20:42;17.30;69.50
66140;DHT22;52945;51.908;8.364;2023-08-30T03:23:42;17.30;69.60
66140;DHT22;52945;51.908;8.364;2023-08-30T03:26:43;17.30;69.70
66140;DHT22;52945;51.908;8.364;2023-08-30T03:29:44;17.20;69.90
66140;DHT22;52945;51.908;8.364;2023-08-30T03:32:44;17.20;69.80
66140;DHT22;52945;51.908;8.364;2023-08-30T03:35:45;17.10;69.80
66140;DHT22;52945;51.908;8.364;2023-08-30T03:38:46;17.10;69.80
66140;DHT22;52945;51.908;8.364;2023-08-30T03:41:46;17.10;69.70
66140;DHT22;52945;51.908;8.364;2023-08-30T03:44:47;17.10;69.60
66140;DHT22;52945;51.908;8.364;2023-08-30T03:47:47;17.10;69.50
66140;DHT22;52945;51.908;8.364;2023-08-30T03:50:48;17.10;69.70
66140;DHT22;52945;51.908;8.364;2023-08-30T03:53:49;17.10;69.80
66140;DHT22;52945;51.908;8.364;2023-08-30T03:56:49;17.00;69.90
66140;DHT22;52945;51.908;8.364;2023-08-30T03:59:50;17.00;69.80
66140;DHT22;52945;51.908;8.364;2023-08-30T04:02:50;17.00;69.80
66140;DHT22;52945;51.908;8.364;2023-08-30T04:05:55;17.00;69.90
66140;DHT22;52945;51.908;8.364;2023-08-30T04:08:57;17.00;69.90
66140;DHT22;52945;51.908;8.364;2023-08-30T04:11:57;17.00;69.90
66140;DHT22;52945;51.908;8.364;2023-08-30T04:15:00;17.00;70.10
66140;DHT22;52945;51.908;8.364;2023-08-30T04:18:02;17.00;70.20
66140;DHT22;52945;51.908;8.364;2023-08-30T04:21:02;16.90;70.20
66140;DHT22;52945;51.908;8.364;2023-08-30T04:24:03;16.90;69.80
66140;DHT22;52945;51.908;8.364;2023-08-30T04:27:04;16.90;69.70
66140;DHT22;52945;51.908;8.364;2023-08-30T04:30:05;16.90;69.80
66140;DHT22;52945;51.908;8.364;2023-08-30T04:33:06;16.90;69.70
66140;DHT22;52945;51.908;8.364;2023-08-30T04:36:07;16.80;69.60
66140;DHT22;52945;51.908;8.364;2023-08-30T04:39:08;16.80;69.60
66140;DHT22;52945;51.908;8.364;2023-08-30T04:42:08;16.70;69.90
66140;DHT22;52945;51.908;8.364;2023-08-30T04:45:09;16.70;70.40
66140;DHT22;52945;51.908;8.364;2023-08-30T04:48:10;16.70;70.50
66140;DHT22;52945;51.908;8.364;2023-08-30T04:51:10;16.70;70.50
66140;DHT22;52945;51.908;8.364;2023-08-30T04:54:11;16.70;70.70
66140;DHT22;52945;51.908;8.364;2023-08-30T04:57:12;16.60;71.10
66140;DHT22;52945;51.908;8.364;2023-08-30T05:00:17;16.60;71.40
66140;DHT22;52945;51.908;8.364;2023-08-30T05:03:19;16.70;71.50
66140;DHT22;52945;51.908;8.364;2023-08-30T05:06:19;16.60;71.40
66140;DHT22;52945;51.908;8.364;2023-08-30T05:09:20;16.60;71.50
66140;DHT22;52945;51.908;8.364;2023-08-30T05:12:25;16.60;71.60
66140;DHT22;52945;51.908;8.364;2023-08-30T05:15:25;16.60;71.80
66140;DHT22;52945;51.908;8.364;2023-08-30T05:18:26;16.60;72.00
66140;DHT22;52945;51.908;8.364;2023-08-30T05:21:26;16.60;72.10
66140;DHT22;52945;51.908;8.364;2023-08-30T05:24:27;16.60;72.30
66140;DHT22;52945;51.908;8.364;2023-08-30T05:27:28;16.60;72.30
66140;DHT22;52945;51.908;8.364;2023-08-30T05:30:29;16.70;72.30
66140;DHT22;52945;51.908;8.364;2023-08-30T05:33:29;16.60;72.40
66140;DHT22;52945;51.908;8.364;2023-08-30T05:36:30;16.70;72.50
66140;DHT22;52945;51.908;8.364;2023-08-30T05:39:31;16.60;72.50
66140;DHT22;52945;51.908;8.364;2023-08-30T05:42:31;16.70;72.60
66140;DHT22;52945;51.908;8.364;2023-08-30T05:45:32;16.70;72.80
66140;DHT22;52945;51.908;8.364;2023-08-30T05:48:33;16.70;72.80
66140;DHT22;52945;51.908;8.364;2023-08-30T05:51:33;16.70;72.80
66140;DHT22;52945;51.908;8.364;2023-08-30T05:54:34;16.70;72.90
66140;DHT22;52945;51.908;8.364;2023-08-30T05:57:35;16.70;72.80
66140;DHT22;52945;51.908;8.364;2023-08-30T06:00:35;16.70;72.80
66140;DHT22;52945;51.908;8.364;2023-08-30T06:03:36;16.70;72.90
66140;DHT22;52945;51.908;8.364;2023-08-30T06:06:36;16.70;72.80
66140;DHT22;52945;51.908;8.364;2023-08-30T06:09:37;16.80;72.80
66140;DHT22;52945;51.908;8.364;2023-08-30T06:12:38;16.80;72.60
66140;DHT22;52945;51.908;8.364;2023-08-30T06:15:38;16.90;72.70
66140;DHT22;52945;51.908;8.364;2023-08-30T06:18:39;16.90;72.60
66140;DHT22;52945;51.908;8.364;2023-08-30T06:21:40;16.90;72.70
66140;DHT22;52945;51.908;8.364;2023-08-30T06:24:40;17.00;72.70
66140;DHT22;52945;51.908;8.364;2023-08-30T06:27:42;17.00;72.60
66140;DHT22;52945;51.908;8.364;2023-08-30T06:30:43;17.00;72.70
66140;DHT22;52945;51.908;8.364;2023-08-30T06:33:44;17.10;72.90
66140;DHT22;52945;51.908;8.364;2023-08-30T06:36:45;17.00;72.70
66140;DHT22;52945;51.908;8.364;2023-08-30T06:39:45;17.10;72.90
66140;DHT22;52945;51.908;8.364;2023-08-30T06:42:46;17.10;72.90
66140;DHT22;52945;51.908;8.364;2023-08-30T06:45:46;17.10;73.00
66140;DHT22;52945;51.908;8.364;2023-08-30T06:48:47;17.10;73.20
66140;DHT22;52945;51.908;8.364;2023-08-30T06:51:48;17.20;73.20
66140;DHT22;52945;51.908;8.364;2023-08-30T06:54:49;17.20;73.10
66140;DHT22;52945;51.908;8.364;2023-08-30T06:57:50;17.20;72.90
66140;DHT22;52945;51.908;8.364;2023-08-30T07:00:50;17.20;72.90
66140;DHT22;52945;51.908;8.364;2023-08-30T07:03:51;17.20;72.80
66140;DHT22;52945;51.908;8.364;2023-08-30T07:06:52;17.30;72.60
66140;DHT22;52945;51.908;8.364;2023-08-30T07:09:53;17.30;72.70
66140;DHT22;52945;51.908;8.364;2023-08-30T07:12:53;17.40;72.60
66140;DHT22;52945;51.908;8.364;2023-08-30T07:15:54;17.40;72.40
66140;DHT22;52945;51.908;8.364;2023-08-30T07:18:54;17.50;72.70
66140;DHT22;52945;51.908;8.364;2023-08-30T07:21:55;17.50;72.50
66140;DHT22;52945;51.908;8.364;2023-08-30T07:24:55;17.60;72.50
66140;DHT22;52945;51.908;8.364;2023-08-30T07:27:56;17.60;72.50
66140;DHT22;52945;51.908;8.364;2023-08-30T07:31:04;17.70;72.30
66140;DHT22;52945;51.908;8.364;2023-08-30T07:34:04;17.70;72.30
66140;DHT22;52945;51.908;8.364;2023-08-30T07:37:05;17.80;72.00
66140;DHT22;52945;51.908;8.364;2023-08-30T07:40:06;17.80;71.70
66140;DHT22;52945;51.908;8.364;2023-08-30T07:43:07;17.90;71.90
66140;DHT22;52945;51.908;8.364;2023-08-30T07:46:08;17.90;71.60
66140;DHT22;52945;51.908;8.364;2023-08-30T07:49:08;18.00;71.40
66140;DHT22;52945;51.908;8.364;2023-08-30T07:52:09;18.00;71.30
66140;DHT22;52945;51.908;8.364;2023-08-30T07:55:11;18.10;71.30
66140;DHT22;52945;51.908;8.364;2023-08-30T07:58:11;18.20;71.20
66140;DHT22;52945;51.908;8.364;2023-08-30T08:01:12;18.20;70.90
66140;DHT22;52945;51.908;8.364;2023-08-30T08:04:12;18.20;71.00
66140;DHT22;52945;51.908;8.364;2023-08-30T08:07:13;18.40;70.90
66140;DHT22;52945;51.908;8.364;2023-08-30T08:10:14;18.40;70.60
66140;DHT22;52945;51.908;8.364;2023-08-30T08:13:14;18.50;70.40
66140;DHT22;52945;51.908;8.364;2023-08-30T08:16:15;18.60;70.20
66140;DHT22;52945;51.908;8.364;2023-08-30T08:19:16;18.60;70.00
66140;DHT22;52945;51.908;8.364;2023-08-30T08:22:16;18.70;69.70
66140;DHT22;52945;51.908;8.364;2023-08-30T08:25:17;18.70;69.40
66140;DHT22;52945;51.908;8.364;2023-08-30T08:28:18;18.80;69.10
66140;DHT22;52945;51.908;8.364;2023-08-30T08:31:18;18.80;69.00
66140;DHT22;52945;51.908;8.364;2023-08-30T08:34:19;18.90;68.80
66140;DHT22;52945;51.908;8.364;2023-08-30T08:37:19;19.00;68.60
66140;DHT22;52945;51.908;8.364;2023-08-30T08:40:20;19.10;68.30
66140;DHT22;52945;51.908;8.364;2023-08-30T08:43:21;19.10;68.20
66140;DHT22;52945;51.908;8.364;2023-08-30T08:46:22;19.20;68.60
66140;DHT22;52945;51.908;8.364;2023-08-30T08:49:24;19.40;67.20
66140;DHT22;52945;51.908;8.364;2023-08-30T08:52:28;19.60;66.10
66140;DHT22;52945;51.908;8.364;2023-08-30T08:55:29;19.70;65.90
66140;DHT22;52945;51.908;8.364;2023-08-30T08:58:31;19.90;66.60
66140;DHT22;52945;51.908;8.364;2023-08-30T09:01:33;20.20;64.70
66140;DHT22;52945;51.908;8.364;2023-08-30T09:04:35;20.40;63.90
66140;DHT22;52945;51.908;8.364;2023-08-30T09:07:36;20.70;62.60
66140;DHT22;52945;51.908;8.364;2023-08-30T09:10:38;20.90;60.60
66140;DHT22;52945;51.908;8.364;2023-08-30T09:13:39;21.20;60.10
66140;DHT22;52945;51.908;8.364;2023-08-30T09:16:39;21.50;59.40
66140;DHT22;52945;51.908;8.364;2023-08-30T09:19:40;21.70;59.00
66140;DHT22;52945;51.908;8.364;2023-08-30T09:22:42;22.00;58.70
66140;DHT22;52945;51.908;8.364;2023-08-30T09:25:44;22.30;56.80
66140;DHT22;52945;51.908;8.364;2023-08-30T09:28:45;22.50;56.80
66140;DHT22;52945;51.908;8.364;2023-08-30T09:31:46;22.70;55.70
66140;DHT22;52945;51.908;8.364;2023-08-30T09:34:46;23.00;53.60
66140;DHT22;52945;51.908;8.364;2023-08-30T09:37:47;23.20;54.10
66140;DHT22;52945;51.908;8.364;2023-08-30T09:40:48;23.40;52.20
66140;DHT22;52945;51.908;8.364;2023-08-30T09:43:49;23.60;50.40
66140;DHT22;52945;51.908;8.364;2023-08-30T09:46:53;23.70;49.90
66140;DHT22;52945;51.908;8.364;2023-08-30T09:49:55;23.90;48.20
66140;DHT22;52945;51.908;8.364;2023-08-30T09:52:56;24.00;48.30
66140;DHT22;52945;51.908;8.364;2023-08-30T09:55:58;24.20;48.20
66140;DHT22;52945;51.908;8.364;2023-08-30T09:58:59;24.30;47.40
66140;DHT22;52945;51.908;8.364;2023-08-30T10:02:00;24.50;48.00
66140;DHT22;52945;51.908;8.364;2023-08-30T10:05:03;24.60;47.50
66140;DHT22;52945;51.908;8.364;2023-08-30T10:08:06;24.40;46.40
66140;DHT22;52945;51.908;8.364;2023-08-30T10:11:07;24.30;46.90
66140;DHT22;52945;51.908;8.364;2023-08-30T10:14:09;24.20;46.20
66140;DHT22;52945;51.908;8.364;2023-08-30T10:17:11;24.00;44.40
66140;DHT22;52945;51.908;8.364;2023-08-30T10:20:12;23.90;45.10
66140;DHT22;52945;51.908;8.364;2023-08-30T10:23:14;23.80;44.70
66140;DHT22;52945;51.908;8.364;2023-08-30T10:26:18;23.70;45.40
66140;DHT22;52945;51.908;8.364;2023-08-30T10:29:20;23.60;46.00
66140;DHT22;52945;51.908;8.364;2023-08-30T10:32:21;23.40;45.40
66140;DHT22;52945;51.908;8.364;2023-08-30T10:35:22;23.40;45.70
66140;DHT22;52945;51.908;8.364;2023-08-30T10:38:27;23.30;46.10
66140;DHT22;52945;51.908;8.364;2023-08-30T10:41:27;23.20;46.20
66140;DHT22;52945;51.908;8.364;2023-08-30T10:44:28;23.10;45.40
66140;DHT22;52945;51.908;8.364;2023-08-30T10:47:30;23.00;46.00
66140;DHT22;52945;51.908;8.364;2023-08-30T10:50:32;22.90;46.10
66140;DHT22;52945;51.908;8.364;2023-08-30T10:53:33;22.80;46.90
66140;DHT22;52945;51.908;8.364;2023-08-30T10:56:34;22.70;46.90
66140;DHT22;52945;51.908;8.364;2023-08-30T10:59:35;22.60;47.30
66140;DHT22;52945;51.908;8.364;2023-08-30T11:02:37;22.50;48.10
66140;DHT22;52945;51.908;8.364;2023-08-30T11:05:40;22.40;48.60
66140;DHT22;52945;51.908;8.364;2023-08-30T11:08:41;22.40;49.10
66140;DHT22;52945;51.908;8.364;2023-08-30T11:11:42;22.30;49.30
66140;DHT22;52945;51.908;8.364;2023-08-30T11:14:43;22.30;48.70
66140;DHT22;52945;51.908;8.364;2023-08-30T11:17:44;22.20;48.30
66140;DHT22;52945;51.908;8.364;2023-08-30T11:20:44;22.20;48.70
66140;DHT22;52945;51.908;8.364;2023-08-30T11:23:45;22.20;48.30
66140;DHT22;52945;51.908;8.364;2023-08-30T11:26:46;22.20;48.50
66140;DHT22;52945;51.908;8.364;2023-08-30T11:29:46;22.20;47.90
66140;DHT22;52945;51.908;8.364;2023-08-30T11:32:47;22.20;48.40
66140;DHT22;52945;51.908;8.364;2023-08-30T11:35:49;22.30;48.70
66140;DHT22;52945;51.908;8.364;2023-08-30T11:38:54;22.30;47.50
66140;DHT22;52945;51.908;8.364;2023-08-30T11:41:55;22.40;48.10
66140;DHT22;52945;51.908;8.364;2023-08-30T11:44:58;22.30;47.40
66140;DHT22;52945;51.908;8.364;2023-08-30T11:47:59;22.30;47.40
66140;DHT22;52945;51.908;8.364;2023-08-30T11:51:00;22.40;46.70
66140;DHT22;52945;51.908;8.364;2023-08-30T11:54:01;22.40;47.20
66140;DHT22;52945;51.908;8.364;2023-08-30T11:57:04;22.50;47.30
66140;DHT22;52945;51.908;8.364;2023-08-30T12:00:11;22.40;46.90
66140;DHT22;52945;51.908;8.364;2023-08-30T12:03:15;22.40;47.10
66140;DHT22;52945;51.908;8.364;2023-08-30T12:06:17;22.40;47.90
66140;DHT22;52945;51.908;8.364;2023-08-30T12:09:17;22.40;49.20
66140;DHT22;52945;51.908;8.364;2023-08-30T12:12:18;22.40;50.00
66140;DHT22;52945;51.908;8.364;2023-08-30T12:15:18;22.30;51.80
66140;DHT22;52945;51.908;8.364;2023-08-30T12:18:27;22.30;52.50
66140;DHT22;52945;51.908;8.364;2023-08-30T12:21:39;22.20;52.40
66140;DHT22;52945;51.908;8.364;2023-08-30T12:24:42;22.20;52.80
66140;DHT22;52945;51.908;8.364;2023-08-30T12:27:43;22.10;53.60
66140;DHT22;52945;51.908;8.364;2023-08-30T12:30:43;21.90;53.60
66140;DHT22;52945;51.908;8.364;2023-08-30T12:33:44;21.90;54.30
66140;DHT22;52945;51.908;8.364;2023-08-30T12:36:44;21.80;54.70
66140;DHT22;52945;51.908;8.364;2023-08-30T12:39:45;21.80;54.90
66140;DHT22;52945;51.908;8.364;2023-08-30T12:42:46;21.70;54.90
66140;DHT22;52945;51.908;8.364;2023-08-30T12:45:47;21.70;55.30
66140;DHT22;52945;51.908;8.364;2023-08-30T12:48:48;21.50;55.20
66140;DHT22;52945;51.908;8.364;2023-08-30T12:51:49;21.40;56.00
66140;DHT22;52945;51.908;8.364;2023-08-30T12:54:49;21.30;56.40
66140;DHT22;52945;51.908;8.364;2023-08-30T12:57:52;21.30;57.60
66140;DHT22;52945;51.908;8.364;2023-08-30T13:00:53;21.20;58.40
66140;DHT22;52945;51.908;8.364;2023-08-30T13:03:53;21.20;58.90
66140;DHT22;52945;51.908;8.364;2023-08-30T13:06:54;21.00;60.10
66140;DHT22;52945;51.908;8.364;2023-08-30T13:09:55;21.00;60.60
66140;DHT22;52945;51.908;8.364;2023-08-30T13:12:55;21.00;61.10
66140;DHT22;52945;51.908;8.364;2023-08-30T13:15:57;20.70;62.30
66140;DHT22;52945;51.908;8.364;2023-08-30T13:18:58;20.70;63.60
66140;DHT22;52945;51.908;8.364;2023-08-30T13:21:58;20.60;64.00
66140;DHT22;52945;51.908;8.364;2023-08-30T13:24:59;20.60;64.90
66140;DHT22;52945;51.908;8.364;2023-08-30T13:27:59;20.50;65.20
66140;DHT22;52945;51.908;8.364;2023-08-30T13:31:00;20.40;65.30
66140;DHT22;52945;51.908;8.364;2023-08-30T13:34:01;20.30;66.20
66140;DHT22;52945;51.908;8.364;2023-08-30T13:37:01;20.20;66.80
66140;DHT22;52945;51.908;8.364;2023-08-30T13:40:02;20.20;67.70
66140;DHT22;52945;51.908;8.364;2023-08-30T13:43:06;20.10;68.30
66140;DHT22;52945;51.908;8.364;2023-08-30T13:46:07;20.00;68.50
66140;DHT22;52945;51.908;8.364;2023-08-30T13:49:08;19.90;69.40
66140;DHT22;52945;51.908;8.364;2023-08-30T13:52:08;19.90;69.90
66140;DHT22;52945;51.908;8.364;2023-08-30T13:55:09;19.80;70.70
66140;DHT22;52945;51.908;8.364;2023-08-30T13:58:09;19.90;71.80
66140;DHT22;52945;51.908;8.364;2023-08-30T14:01:10;19.80;72.10
66140;DHT22;52945;51.908;8.364;2023-08-30T14:04:10;19.80;72.80
66140;DHT22;52945;51.908;8.364;2023-08-30T14:07:11;19.80;72.90
66140;DHT22;52945;51.908;8.364;2023-08-30T14:10:12;19.80;73.20
66140;DHT22;52945;51.908;8.364;2023-08-30T14:13:17;19.80;73.00
66140;DHT22;52945;51.908;8.364;2023-08-30T14:16:17;19.70;73.40
66140;DHT22;52945;51.908;8.364;2023-08-30T14:19:18;19.70;73.20
66140;DHT22;52945;51.908;8.364;2023-08-30T14:22:19;19.70;73.20
66140;DHT22;52945;51.908;8.364;2023-08-30T14:25:20;19.70;73.20
66140;DHT22;52945;51.908;8.364;2023-08-30T14:28:20;19.70;73.40
66140;DHT22;52945;51.908;8.364;2023-08-30T14:31:21;19.60;73.70
66140;DHT22;52945;51.908;8.364;2023-08-30T14:34:21;19.60;73.40
66140;DHT22;52945;51.908;8.364;2023-08-30T14:37:22;19.60;73.90
66140;DHT22;52945;51.908;8.364;2023-08-30T14:40:22;19.60;74.00
66140;DHT22;52945;51.908;8.364;2023-08-30T14:43:23;19.60;74.10
66140;DHT22;52945;51.908;8.364;2023-08-30T14:46:24;19.50;74.10
66140;DHT22;52945;51.908;8.364;2023-08-30T14:49:24;19.40;73.80
66140;DHT22;52945;51.908;8.364;2023-08-30T14:52:25;19.30;73.80
66140;DHT22;52945;51.908;8.364;2023-08-30T14:55:25;19.30;74.10
66140;DHT22;52945;51.908;8.364;2023-08-30T14:58:26;19.30;74.10
66140;DHT22;52945;51.908;8.364;2023-08-30T15:01:27;19.20;74.30
66140;DHT22;52945;51.908;8.364;2023-08-30T15:04:27;19.20;75.00
66140;DHT22;52945;51.908;8.364;2023-08-30T15:07:28;19.20;75.10
66140;DHT22;52945;51.908;8.364;2023-08-30T15:10:28;19.20;74.90
66140;DHT22;52945;51.908;8.364;2023-08-30T15:13:29;19.30;74.80
66140;DHT22;52945;51.908;8.364;2023-08-30T15:16:29;19.30;74.90
66140;DHT22;52945;51.908;8.364;2023-08-30T15:19:30;19.20;75.10
66140;DHT22;52945;51.908;8.364;2023-08-30T15:22:30;19.30;75.10
66140;DHT22;52945;51.908;8.364;2023-08-30T15:25:32;19.20;75.00
66140;DHT22;52945;51.908;8.364;2023-08-30T15:28:33;19.20;75.20
66140;DHT22;52945;51.908;8.364;2023-08-30T15:31:33;19.20;75.40
66140;DHT22;52945;51.908;8.364;2023-08-30T15:34:34;19.20;75.40
66140;DHT22;52945;51.908;8.364;2023-08-30T15:37:35;19.20;75.40
66140;DHT22;52945;51.908;8.364;2023-08-30T15:40:36;19.20;75.00
66140;DHT22;52945;51.908;8.364;2023-08-30T15:43:40;19.20;75.30
66140;DHT22;52945;51.908;8.364;2023-08-30T15:46:40;19.10;75.20
66140;DHT22;52945;51.908;8.364;2023-08-30T15:49:41;19.10;75.30
66140;DHT22;52945;51.908;8.364;2023-08-30T15:52:42;19.10;75.20
66140;DHT22;52945;51.908;8.364;2023-08-30T15:55:43;19.00;75.40
66140;DHT22;52945;51.908;8.364;2023-08-30T15:58:43;19.00;75.50
66140;DHT22;52945;51.908;8.364;2023-08-30T16:01:44;19.00;75.60
66140;DHT22;52945;51.908;8.364;2023-08-30T16:04:44;19.00;75.60
66140;DHT22;52945;51.908;8.364;2023-08-30T16:07:45;19.00;75.50
66140;DHT22;52945;51.908;8.364;2023-08-30T16:10:52;19.00;75.70
66140;DHT22;52945;51.908;8.364;2023-08-30T16:13:53;19.00;75.40
66140;DHT22;52945;51.908;8.364;2023-08-30T16:16:54;18.90;75.20
66140;DHT22;52945;51.908;8.364;2023-08-30T16:19:54;18.90;75.40
66140;DHT22;52945;51.908;8.364;2023-08-30T16:22:57;18.80;75.50
66140;DHT22;52945;51.908;8.364;2023-08-30T16:25:58;18.80;75.30
66140;DHT22;52945;51.908;8.364;2023-08-30T16:28:59;18.70;74.50
66140;DHT22;52945;51.908;8.364;2023-08-30T16:32:00;18.60;74.90
66140;DHT22;52945;51.908;8.364;2023-08-30T16:35:00;18.60;75.10
66140;DHT22;52945;51.908;8.364;2023-08-30T16:38:01;18.60;75.10
66140;DHT22;52945;51.908;8.364;2023-08-30T16:41:01;18.50;75.10
66140;DHT22;52945;51.908;8.364;2023-08-30T16:44:05;18.40;75.10
66140;DHT22;52945;51.908;8.364;2023-08-30T16:47:06;18.30;75.20
66140;DHT22;52945;51.908;8.364;2023-08-30T16:50:07;18.30;75.00
66140;DHT22;52945;51.908;8.364;2023-08-30T16:53:07;18.20;75.00
66140;DHT22;52945;51.908;8.364;2023-08-30T16:56:08;18.20;75.10
66140;DHT22;52945;51.908;8.364;2023-08-30T16:59:08;18.20;75.30
66140;DHT22;52945;51.908;8.364;2023-08-30T17:02:09;18.10;75.10
66140;DHT22;52945;51.908;8.364;2023-08-30T17:05:10;18.00;75.10
66140;DHT22;52945;51.908;8.364;2023-08-30T17:08:10;18.00;75.20
66140;DHT22;52945;51.908;8.364;2023-08-30T17:11:11;17.90;75.20
66140;DHT22;52945;51.908;8.364;2023-08-30T17:14:12;17.80;75.30
66140;DHT22;52945;51.908;8.364;2023-08-30T17:17:12;17.80;75.50
66140;DHT22;52945;51.908;8.364;2023-08-30T17:20:13;17.80;75.90
66140;DHT22;52945;51.908;8.364;2023-08-30T17:23:14;17.70;75.80
66140;DHT22;52945;51.908;8.364;2023-08-30T17:26:14;17.70;76.00
66140;DHT22;52945;51.908;8.364;2023-08-30T17:29:15;17.70;76.30
66140;DHT22;52945;51.908;8.364;2023-08-30T17:32:15;17.70;76.40
66140;DHT22;52945;51.908;8.364;2023-08-30T17:35:16;17.70;76.30
66140;DHT22;52945;51.908;8.364;2023-08-30T17:38:17;17.70;76.40
66140;DHT22;52945;51.908;8.364;2023-08-30T17:41:17;17.70;76.50
66140;DHT22;52945;51.908;8.364;2023-08-30T17:44:18;17.70;76.50
66140;DHT22;52945;51.908;8.364;2023-08-30T17:47:21;17.70;76.50
66140;DHT22;52945;51.908;8.364;2023-08-30T17:50:21;17.60;76.60
66140;DHT22;52945;51.908;8.364;2023-08-30T17:53:22;17.60;76.80
66140;DHT22;52945;51.908;8.364;2023-08-30T17:56:22;17.70;76.70
66140;DHT22;52945;51.908;8.364;2023-08-30T17:59:24;17.70;77.00
66140;DHT22;52945;51.908;8.364;2023-08-30T18:02:25;17.70;77.00
66140;DHT22;52945;51.908;8.364;2023-08-30T18:05:25;17.70;76.80
66140;DHT22;52945;51.908;8.364;2023-08-30T18:08:26;17.70;76.90
66140;DHT22;52945;51.908;8.364;2023-08-30T18:11:27;17.70;76.90
66140;DHT22;52945;51.908;8.364;2023-08-30T18:14:27;17.70;76.90
66140;DHT22;52945;51.908;8.364;2023-08-30T18:17:28;17.70;76.80
66140;DHT22;52945;51.908;8.364;2023-08-30T18:20:30;17.70;76.70
66140;DHT22;52945;51.908;8.364;2023-08-30T18:23:30;17.70;76.50
66140;DHT22;52945;51.908;8.364;2023-08-30T18:26:31;17.70;76.70
66140;DHT22;52945;51.908;8.364;2023-08-30T18:29:31;17.60;76.70
66140;DHT22;52945;51.908;8.364;2023-08-30T18:32:33;17.60;76.70
66140;DHT22;52945;51.908;8.364;2023-08-30T18:35:34;17.60;76.50
66140;DHT22;52945;51.908;8.364;2023-08-30T18:38:35;17.50;76.40
66140;DHT22;52945;51.908;8.364;2023-08-30T18:41:35;17.50;76.50
66140;DHT22;52945;51.908;8.364;2023-08-30T18:44:36;17.50;76.50
66140;DHT22;52945;51.908;8.364;2023-08-30T18:47:37;17.40;76.50
66140;DHT22;52945;51.908;8.364;2023-08-30T18:50:41;17.40;76.50
66140;DHT22;52945;51.908;8.364;2023-08-30T18:53:42;17.40;76.50
66140;DHT22;52945;51.908;8.364;2023-08-30T18:56:43;17.40;76.70
66140;DHT22;52945;51.908;8.364;2023-08-30T18:59:44;17.30;76.70
66140;DHT22;52945;51.908;8.364;2023-08-30T19:02:45;17.30;76.70
66140;DHT22;52945;51.908;8.364;2023-08-30T19:05:45;17.30;76.60